Alden, Wisconsin
Current Conditions -  °F | °C
As of 9:35 AM on Friday 24 Oct 2014 (Local Time) from KRNH Reporting Station
Broken Clouds Broken Clouds  
Wind Chill: 51°   Ceiling: 4600
Heat Index: 51°   Visibility: 10mi
Dew Point: 51°   Wind: 9mph
Humidity: 99%   Direction: 140°SE
Pressure: 29.92"   Gusts: NA
Location:  45.1804°N, 92.551°W
Report Text: KRNH 241435Z AUTO 14008KT 10SM BKN046 BKN050 11/10 A2992 RMK AO2 T01050104
Loading
Personal Weather Stations






























Interactive Weather Map
Tropical Storm Tracking
New forecast layout! Learn more

10-Day Weather Forecast

Advertisements
Track Severe Weather on mobile